Skip to main content.
^^
Station Historical Data
 
Daily Summary for February 19, 2019 Units:  Metric    English   Both
« Previous Day
Next Day »
Daily Weekly Monthly Yearly Custom
  Current: High: Low: Average:
Temperature: 9.8 °C 10.3 °C 2.1 °C 5.1 °C
Dew Point: 5.9 °C 6.4 °C 1.5 °C 3.6 °C
Humidity: 77% 98% 71% 91%
Wind Speed: 4.8km/h 11.3km/h 0.0km/h 2.6km/h
Wind Gust: 16.1km/h 20.9km/h - -
WindWSW - - SW
Pressure: 1018.4 hPa 1019.6 hPa 1016.4 hPa -
Precipitation: 0.3 mm      
Historical Graphs
 
 
Tabular Data for February 19, 2019
Time Temperature Dew Point Pressure Wind Wind Speed Wind Gust Humidity Rainfall Rate (Hourly) solar Conditions
00:00 3.8 °C 3.2 °C 1016.4 hPa West 1.6 km/h 4.8 km/h 96% 0.0 mm 0.00 W/m2 -DZ
00:10 3.8 °C 3.2 °C 1016.5 hPa Calm   4.8 km/h 96% 0.0 mm 0.00 W/m2 -DZ
00:20 3.7 °C 2.9 °C 1016.6 hPa West 1.6 km/h 8.0 km/h 95% 0.0 mm 0.00 W/m2 -DZ
00:30 3.7 °C 2.9 °C 1016.6 hPa Calm   11.3 km/h 95% 0.0 mm 0.00 W/m2 -DZ
00:40 3.6 °C 2.9 °C 1016.6 hPa Calm   3.2 km/h 95% 0.0 mm 0.00 W/m2 -DZ
00:50 3.6 °C 2.8 °C 1016.8 hPa Calm   8.0 km/h 95% 0.0 mm 0.00 W/m2 -DZ
01:00 3.4 °C 2.7 °C 1016.9 hPa Calm   3.2 km/h 95% 0.0 mm 0.00 W/m2 -DZ
01:10 3.4 °C 2.7 °C 1017.0 hPa Calm   4.8 km/h 95% 0.0 mm 0.00 W/m2 -DZ
01:20 3.5 °C 2.9 °C 1017.0 hPa WSW 3.2 km/h 8.0 km/h 96% 0.0 mm 0.00 W/m2 -DZ
01:30 3.6 °C 3.0 °C 1017.0 hPa WSW 3.2 km/h 4.8 km/h 96% 0.0 mm 0.00 W/m2 -DZ
01:40 3.5 °C 2.8 °C 1017.0 hPa WSW 1.6 km/h 3.2 km/h 95% 0.0 mm 0.00 W/m2 -DZ
01:50 3.4 °C 2.7 °C 1017.2 hPa WSW 1.6 km/h 3.2 km/h 95% 0.0 mm 0.00 W/m2 -DZ
02:00 3.4 °C 2.7 °C 1017.3 hPa WSW 1.6 km/h 3.2 km/h 95% 0.0 mm 0.00 W/m2 -DZ
02:10 3.3 °C 2.6 °C 1017.2 hPa WSW 1.6 km/h 3.2 km/h 95% 0.0 mm 0.00 W/m2 -DZ
02:20 3.3 °C 2.6 °C 1017.2 hPa WSW 1.6 km/h 4.8 km/h 95% 0.0 mm 0.00 W/m2 -DZ
02:30 3.3 °C 2.6 °C 1017.3 hPa Calm   4.8 km/h 95% 0.0 mm 0.00 W/m2 -DZ
02:40 3.3 °C 2.6 °C 1017.1 hPa WSW 1.6 km/h 4.8 km/h 95% 0.0 mm 0.00 W/m2 -DZ
02:50 3.3 °C 2.6 °C 1017.2 hPa WSW 1.6 km/h 3.2 km/h 95% 0.3 mm 0.00 W/m2 -DZ
03:00 3.2 °C 2.5 °C 1017.2 hPa WSW 1.6 km/h 4.8 km/h 95% 0.0 mm 0.00 W/m2 -DZ
03:10 3.3 °C 2.6 °C 1017.3 hPa WSW 1.6 km/h 4.8 km/h 95% 0.0 mm 0.00 W/m2 -DZ
03:20 3.3 °C 2.7 °C 1017.3 hPa Calm   8.0 km/h 96% 0.0 mm 0.00 W/m2 -DZ
03:30 3.3 °C 2.6 °C 1017.3 hPa Calm   3.2 km/h 95% 0.0 mm 0.00 W/m2 -DZ
03:40 3.2 °C 2.4 °C 1017.3 hPa Calm   3.2 km/h 95% 0.0 mm 0.00 W/m2 -DZ
03:50 3.1 °C 2.4 °C 1017.4 hPa WSW 1.6 km/h 3.2 km/h 95% 0.0 mm 0.00 W/m2 -DZ
04:00 3.1 °C 2.4 °C 1017.2 hPa Calm   3.2 km/h 95% 0.0 mm 0.00 W/m2 -DZ
04:10 3.1 °C 2.5 °C 1017.3 hPa WSW 1.6 km/h 3.2 km/h 96% 0.0 mm 0.00 W/m2 -DZ
04:20 3.0 °C 2.3 °C 1017.4 hPa WSW 1.6 km/h 3.2 km/h 95% 0.0 mm 0.00 W/m2 -DZ
04:30 2.9 °C 2.3 °C 1017.4 hPa Calm   3.2 km/h 96% 0.0 mm 0.00 W/m2 -DZ
04:40 2.9 °C 2.3 °C 1017.4 hPa Calm   1.6 km/h 96% 0.0 mm 0.00 W/m2 -DZ
04:50 2.8 °C 2.2 °C 1017.3 hPa WSW 1.6 km/h 3.2 km/h 96% 0.0 mm 0.00 W/m2 -DZ
05:00 2.8 °C 2.2 °C 1017.4 hPa Calm   3.2 km/h 96% 0.0 mm 0.00 W/m2 -DZ
05:10 2.7 °C 2.1 °C 1017.5 hPa Calm     96% 0.0 mm 0.00 W/m2 -DZ
05:20 2.6 °C 2.0 °C 1017.5 hPa WSW 1.6 km/h 3.2 km/h 96% 0.0 mm 0.00 W/m2 -DZ
05:30 2.5 °C 1.9 °C 1017.6 hPa WSW 1.6 km/h 3.2 km/h 96% 0.0 mm 0.00 W/m2 -DZ
05:40 2.5 °C 1.9 °C 1017.5 hPa WSW 1.6 km/h 3.2 km/h 96% 0.0 mm 0.00 W/m2 -DZ
05:50 2.4 °C 1.9 °C 1017.6 hPa Calm   3.2 km/h 96% 0.0 mm 0.00 W/m2 -DZ
06:00 2.4 °C 1.8 °C 1017.6 hPa Calm   3.2 km/h 96% 0.0 mm 0.00 W/m2 -DZ
06:10 2.3 °C 1.8 °C 1017.6 hPa Calm     96% 0.0 mm 0.00 W/m2 -DZ
06:20 2.1 °C 1.6 °C 1017.7 hPa WSW 1.6 km/h 3.2 km/h 96% 0.0 mm 0.00 W/m2 -DZ
06:30 2.1 °C 1.5 °C 1017.6 hPa Calm   3.2 km/h 96% 0.0 mm 0.00 W/m2 -DZ
06:40 2.2 °C 1.6 °C 1017.8 hPa Calm   1.6 km/h 96% 0.0 mm 0.00 W/m2 -DZ
06:50 2.2 °C 1.6 °C 1017.9 hPa Calm   3.2 km/h 96% 0.0 mm 0.00 W/m2 -DZ
07:00 2.1 °C 1.6 °C 1018.0 hPa Calm   1.6 km/h 96% 0.0 mm 0.00 W/m2 -DZ
07:10 2.2 °C 1.6 °C 1018.2 hPa WSW 1.6 km/h 3.2 km/h 96% 0.0 mm 0.00 W/m2 -DZ
07:20 2.1 °C 1.6 °C 1018.4 hPa Calm   1.6 km/h 96% 0.0 mm 7.00 W/m2 -DZ
07:30 2.2 °C 1.6 °C 1018.4 hPa Calm   1.6 km/h 96% 0.0 mm 11.00 W/m2 -DZ
07:40 2.2 °C 1.7 °C 1018.5 hPa Calm   3.2 km/h 97% 0.0 mm 12.00 W/m2 -DZ
07:50 2.3 °C 1.8 °C 1018.6 hPa Calm     97% 0.0 mm 16.00 W/m2 -DZ
08:00 2.4 °C 1.9 °C 1018.7 hPa WSW 1.6 km/h 3.2 km/h 97% 0.0 mm 19.00 W/m2 -DZ
08:10 2.5 °C 2.1 °C 1018.8 hPa Calm   3.2 km/h 97% 0.0 mm 23.00 W/m2 -DZ
08:20 2.7 °C 2.3 °C 1018.9 hPa WSW 1.6 km/h 3.2 km/h 97% 0.0 mm 26.00 W/m2 -DZ
08:30 3.1 °C 2.6 °C 1018.9 hPa SSE 4.8 km/h 11.3 km/h 97% 0.0 mm 33.00 W/m2 -DZ
08:40 3.3 °C 2.8 °C 1019.1 hPa SSE 3.2 km/h 8.0 km/h 97% 0.0 mm 46.00 W/m2 -DZ
08:50 3.6 °C 3.1 °C 1019.1 hPa SSE 3.2 km/h 8.0 km/h 97% 0.0 mm 42.00 W/m2 -DZ
09:00 3.8 °C 3.4 °C 1019.2 hPa SSE 1.6 km/h 4.8 km/h 97% 0.0 mm 32.00 W/m2 -DZ
09:10 4.1 °C 3.8 °C 1019.4 hPa SSE 1.6 km/h 4.8 km/h 98% 0.0 mm 32.00 W/m2 -DZ
09:20 4.3 °C 4.1 °C 1019.4 hPa South 3.2 km/h 4.8 km/h 98% 0.0 mm 56.00 W/m2 -DZ
09:30 4.6 °C 4.2 °C 1019.4 hPa WSW 3.2 km/h 9.7 km/h 97% 0.0 mm 37.00 W/m2 -DZ
09:40 4.8 °C 4.3 °C 1019.4 hPa Calm   4.8 km/h 97% 0.0 mm 39.00 W/m2 -DZ
09:50 4.9 °C 4.5 °C 1019.4 hPa WSW 4.8 km/h 11.3 km/h 97% 0.0 mm 44.00 W/m2 -DZ
10:00 5.4 °C 5.0 °C 1019.5 hPa WSW 3.2 km/h 12.9 km/h 97% 0.0 mm 40.00 W/m2 -DZ
10:10 5.7 °C 5.3 °C 1019.5 hPa SW 3.2 km/h 8.0 km/h 97% 0.0 mm 47.00 W/m2 -DZ
10:20 6.1 °C 5.5 °C 1019.5 hPa WSW 1.6 km/h 12.9 km/h 96% 0.0 mm 53.00 W/m2 -DZ
10:30 6.4 °C 5.6 °C 1019.6 hPa SW 4.8 km/h 14.5 km/h 94% 0.0 mm 56.00 W/m2 -DZ
10:40 6.8 °C 5.8 °C 1019.5 hPa West 1.6 km/h 16.1 km/h 93% 0.0 mm 58.00 W/m2 -DZ
10:50 7.1 °C 5.5 °C 1019.5 hPa WSW 3.2 km/h 12.9 km/h 90% 0.0 mm 49.00 W/m2 -DZ
11:00 7.4 °C 5.8 °C 1019.6 hPa West 1.6 km/h 9.7 km/h 90% 0.0 mm 63.00 W/m2 -DZ
11:10 7.6 °C 5.9 °C 1019.5 hPa WSW 1.6 km/h 12.9 km/h 89% 0.0 mm 97.00 W/m2 -DZ
11:20 7.9 °C 6.1 °C 1019.6 hPa SSW 4.8 km/h 14.5 km/h 88% 0.0 mm 81.00 W/m2 -DZ
11:30 8.2 °C 5.8 °C 1019.5 hPa SW 9.7 km/h 14.5 km/h 85% 0.0 mm 62.00 W/m2 -DZ
11:40 8.3 °C 5.9 °C 1019.6 hPa SW 8.0 km/h 19.3 km/h 85% 0.0 mm 83.00 W/m2 -DZ
11:50 8.6 °C 5.7 °C 1019.4 hPa WSW 8.0 km/h 16.1 km/h 82% 0.0 mm 81.00 W/m2 -DZ
12:00 8.7 °C 5.6 °C 1019.4 hPa SSW 4.8 km/h 20.9 km/h 81% 0.0 mm 91.00 W/m2 -DZ
12:10 9.1 °C 5.8 °C 1019.3 hPa SSW 4.8 km/h 14.5 km/h 80% 0.0 mm 156.00 W/m2 -DZ
12:20 9.7 °C 6.4 °C 1019.2 hPa SW 4.8 km/h 16.1 km/h 80% 0.0 mm 86.00 W/m2 -DZ
12:30 9.4 °C 5.6 °C 1019.2 hPa SW 4.8 km/h 16.1 km/h 77% 0.0 mm 63.00 W/m2 -DZ
12:40 9.4 °C 5.2 °C 1019.2 hPa WSW 8.0 km/h 20.9 km/h 75% 0.0 mm 348.00 W/m2 -DZ
12:50 10.0 °C 5.6 °C 1019.1 hPa SSW 8.0 km/h 16.1 km/h 74% 0.0 mm 425.00 W/m2 -DZ
13:00 9.9 °C 5.1 °C 1019.1 hPa SSW 8.0 km/h 19.3 km/h 72% 0.0 mm 443.00 W/m2 -DZ
13:10 10.0 °C 5.4 °C 1019.1 hPa SW 8.0 km/h 14.5 km/h 73% 0.0 mm 83.00 W/m2 -DZ
13:20 10.1 °C 5.0 °C 1018.9 hPa SW 8.0 km/h 20.9 km/h 71% 0.0 mm 410.00 W/m2 -DZ
13:30 10.3 °C 5.3 °C 1018.9 hPa SSW 11.3 km/h 19.3 km/h 71% 0.0 mm 380.00 W/m2 -DZ
13:40 10.1 °C 5.1 °C 1018.8 hPa SW 8.0 km/h 19.3 km/h 71% 0.0 mm 357.00 W/m2 -DZ
13:50 9.9 °C 5.3 °C 1018.8 hPa SW 8.0 km/h 19.3 km/h 73% 0.0 mm 65.00 W/m2 -DZ
14:00 9.9 °C 5.3 °C 1018.7 hPa SW 4.8 km/h 20.9 km/h 73% 0.0 mm 130.00 W/m2 -DZ
14:10 9.9 °C 5.3 °C 1018.7 hPa SSW 3.2 km/h 14.5 km/h 73% 0.0 mm 90.00 W/m2 -DZ
14:20 9.9 °C 5.7 °C 1018.7 hPa WSW 3.2 km/h 19.3 km/h 75% 0.0 mm 93.00 W/m2 -DZ
14:30 9.9 °C 5.8 °C 1018.6 hPa WSW 4.8 km/h 14.5 km/h 76% 0.0 mm 114.00 W/m2 -DZ
14:40 9.9 °C 5.7 °C 1018.6 hPa SW 3.2 km/h 14.5 km/h 75% 0.0 mm 120.00 W/m2 -DZ
14:50 10.0 °C 5.8 °C 1018.7 hPa SW 3.2 km/h 14.5 km/h 75% 0.0 mm 132.00 W/m2 -DZ
15:00 10.0 °C 5.9 °C 1018.6 hPa WSW 4.8 km/h 16.1 km/h 76% 0.0 mm 100.00 W/m2 -DZ
15:10 9.8 °C 6.0 °C 1018.6 hPa SW 4.8 km/h 11.3 km/h 77% 0.0 mm 105.00 W/m2 -DZ
15:20 9.8 °C 5.9 °C 1018.4 hPa WSW 4.8 km/h 16.1 km/h 77% 0.0 mm 109.00 W/m2 -DZ
Compliments of Weather Underground - 2 mb

Contact Us | Back to Top
Powered by Weather Display v10.37S build 85

Never base important decisions on this or any weather information obtained from the Internet.
Weather data on this site is not quality controlled and continuity of service is not guaranteed.


xhtml  css